• Join FlightAware (Why Join?)
  • Login
  • US Flag 
10:12AM EST


 

Airport Tracker/Info


-or-


 

Live Flight TrackerFlight Track Log ✈ EJA929 ✈ 20-Oct-2013 ✈ KBDL - KSJC

Flight Track Log - Related Links

Times and Time Zones

All times are in EDT time to prevent confusion due to time zone crossing. See the EJA929 flight status page for this flight to view local times or setup timezone preferences in your user account.

Time Position Orientation Groundspeed Altitude Reporting Facility
EDT Latitude Longitude Course Direction KTS MPH feet Rate Location/Type
09:00AM 41.9289 -72.6992 260° West 181 208 1,000  Level Boston Center
09:01AM 41.9217 -72.7539 260° West 195 224 2,900 2,820 Climbing Boston Center
09:01AM 41.9242 -72.7872 276° West 234 269 4,300 3,060 Climbing Boston Center
09:02AM 41.9539 -72.8194 321° Northwest 242 278 6,100 2,940 Climbing Boston Center
09:03AM 42.0319 -72.8211 359° North 280 322 9,100 2,340 Climbing Boston Center
09:04AM 42.1139 -72.8469 347° North 311 358 10,900 1,680 Climbing Boston Center
09:05AM 42.2022 -72.8964 337° Northwest 342 394 12,600 1,680 Climbing Boston Center
09:06AM 42.2939 -72.9478 337° Northwest 356 410 14,400 1,680 Climbing Boston Center
09:07AM 42.3894 -73.0036 337° Northwest 365 420 16,100 1,740 Climbing Boston Center
09:08AM 42.4936 -73.0625 337° Northwest 377 434 18,000 1,620 Climbing Boston Center
09:09AM 42.5753 -73.1072 338° Northwest 383 441 19,400 1,560 Climbing Boston Center
09:11AM 42.7389 -73.2692 324° Northwest 362 417 22,800 1,920 Climbing Boston Center
09:12AM 42.7539 -73.4189 278° West 339 390 25,300 2,100 Climbing Boston Center
09:13AM 42.7661 -73.5489 277° West 346 398 27,100 1,860 Climbing Boston Center
09:14AM 42.7789 -73.6800 278° West 352 405 29,200 1,980 Climbing Boston Center
09:15AM 42.7914 -73.8108 277° West 350 403 31,100 1,920 Climbing Boston Center
09:16AM 42.8042 -73.9436 278° West 355 409 33,100 1,260 Climbing Boston Center
09:17AM 42.8169 -74.0850 277° West 361 415 33,800 1,140 Climbing Boston Center
09:18AM 42.8283 -74.2244 276° West 369 425 35,500 1,080 Climbing Boston Center
09:19AM 42.8414 -74.3622 277° West 368 423 36,000 240 Climbing Boston Center
09:20AM 42.8553 -74.5086 277° West 386 444 36,000  Level Boston Center
09:21AM 42.8675 -74.6553 277° West 390 449 36,000  Level Boston Center
09:22AM 42.8811 -74.8017 277° West 390 449 36,000  Level Boston Center
09:23AM 42.8947 -74.9497 277° West 391 450 36,000  Level Boston Center
09:24AM 42.9067 -75.0986 276° West 393 452 36,000  Level Boston Center
09:25AM 42.9200 -75.2475 277° West 393 452 36,000  Level Boston Center
09:26AM 42.9328 -75.3983 277° West 396 456 36,000  Level Boston Center
09:27AM 42.9456 -75.5478 277° West 395 455 36,000  Level Boston Center
09:28AM 42.9597 -75.7269 276° West 394 453 36,000  Level Boston Center
09:29AM 42.9719 -75.8794 276° West 398 458 36,000  Level Boston Center
09:30AM 42.9842 -76.0353 276° West 411 473 36,000 300 Level Boston Center
09:31AM 42.9961 -76.1872 276° West 405 466 36,700 780 Climbing Boston Center
09:32AM 43.0069 -76.3364 276° West 397 457 37,600 600 Climbing Boston Center
09:33AM 43.0175 -76.4875 276° West 401 461 38,000 180 Climbing Boston Center
09:34AM 43.0286 -76.6403 276° West 416 479 38,000  Level Boston Center
09:35AM 43.0392 -76.7992 275° West 422 486 38,000  Level Boston Center
09:36AM 43.0494 -76.9567 275° West 421 484 38,000  Level Boston Center
09:37AM 43.0614 -77.1150 276° West 423 487 38,000  Level Boston Center
09:38AM 43.0500 -77.2333 263° West 420 483 38,000  Level Toronto Center
09:38AM 43.0739 -77.3333 288° West 421 484 38,000  Level Cleveland Center
09:40AM 43.0842 -77.4931 275° West 425 489 38,000  Level Cleveland Center
09:41AM 43.0958 -77.6847 275° West 426 490 38,000  Level Cleveland Center
09:42AM 43.1069 -77.8467 275° West 430 495 38,000  Level Cleveland Center
09:43AM 43.1164 -78.0081 275° West 430 495 38,000  Level Cleveland Center
09:44AM 43.1264 -78.1694 275° West 429 494 38,000  Level Cleveland Center
09:45AM 43.1356 -78.3325 274° West 431 496 38,000  Level Cleveland Center
09:46AM 43.1444 -78.4939 274° West 430 495 38,000  Level Cleveland Center
09:47AM 43.1542 -78.6911 274° West 431 496 38,000  Level Cleveland Center
09:48AM 43.1636 -78.8553 275° West 435 501 38,000  Level Cleveland Center
09:49AM 43.1711 -79.0192 274° West 432 497 38,000  Level Cleveland Center
09:50AM 43.1797 -79.1836 274° West 431 496 38,000  Level Cleveland Center
09:50AM 43.1811 -79.2164 273° West 431 496 38,000  Level Cleveland Center
09:51AM 43.1897 -79.3797 274° West 432 497 38,000  Level Cleveland Center
09:52AM 43.1833 -79.5333 267° West 430 495 38,000  Level Toronto Center
09:53AM 43.2000 -79.7000 278° West 430 495 38,000  Level Toronto Center
09:54AM 43.2000 -79.8667 270° West 430 495 38,000  Level Toronto Center
09:55AM 43.2167 -80.0167 279° West 430 495 38,000  Level Toronto Center
09:56AM 43.2167 -80.1833 270° West 430 495 38,000  Level Toronto Center
09:57AM 43.2333 -80.3500 278° West 430 495 38,000  Level Toronto Center
09:58AM 43.2333 -80.5333 270° West 430 495 38,000  Level Toronto Center
09:59AM 43.2333 -80.6833 270° West 440 506 38,000  Level Toronto Center
10:00AM 43.2333 -80.8500 270° West 440 506 38,000  Level Toronto Center
10:01AM 43.2333 -81.0000 270° West 440 506 38,000  Level Toronto Center
10:02AM 43.2500 -81.1833 277° West 440 506 38,000  Level Toronto Center
10:03AM 43.2500 -81.3500 270° West 440 506 38,000  Level Toronto Center
10:04AM 43.2667 -81.5333 277° West 440 506 38,000  Level Toronto Center
10:05AM 43.2667 -81.7000 270° West 440 506 38,000  Level Toronto Center
10:06AM 43.2833 -81.8500 279° West 440 506 38,000  Level Toronto Center
10:07AM 43.2667 -82.0333 263° West 440 506 38,100 300 Climbing Toronto Center
10:08AM 43.2667 -82.2000 270° West 440 506 38,700 720 Climbing Toronto Center
10:09AM 43.2833 -82.3667 278° West 430 495 39,600 780 Climbing Toronto Center
10:10AM 43.2931 -82.4658 278° West 418 481 40,000 180 Climbing Cleveland Center
10:11AM 43.2953 -82.6228 271° West 414 476 40,000  Level Cleveland Center
10:12AM 43.2986 -82.7850 272° West 424 488 40,000  Level Cleveland Center
10:13AM 43.3017 -82.9503 272° West 434 499 40,000  Level Cleveland Center
10:14AM 43.3042 -83.1464 271° West 432 497 40,000  Level Cleveland Center
10:15AM 43.3081 -83.3131 272° West 438 504 40,000  Level Cleveland Center
10:16AM 43.3092 -83.4806 271° West 443 510 40,000  Level Cleveland Center
10:17AM 43.3114 -83.6528 271° West 451 519 40,000  Level Cleveland Center
10:18AM 43.3133 -83.8231 271° West 450 518 40,000  Level Cleveland Center
10:19AM 43.3158 -84.0097 271° West 453 521 40,000  Level Cleveland Center
10:20AM 43.3169 -84.1817 271° West 452 520 40,000  Level Cleveland Center
10:21AM 43.3169 -84.3536 270° West 452 520 40,000  Level Cleveland Center
10:21AM 43.3181 -84.4578 271° West 452 520 40,000  Level Chicago Center
10:23AM 43.3186 -84.6314 270° West 455 524 40,000  Level Chicago Center
10:24AM 43.3189 -84.8028 270° West 454 522 40,000  Level Chicago Center
10:25AM 43.3175 -85.0100 270° West 455 524 40,000  Level Chicago Center
10:26AM 43.3183 -85.1828 270° West 455 524 40,000  Level Chicago Center
10:27AM 43.3178 -85.3558 270° West 456 525 40,000  Level Chicago Center
10:28AM 43.3167 -85.5278 270° West 455 524 40,000  Level Chicago Center
10:29AM 43.3150 -85.7006 269° West 457 526 40,000  Level Chicago Center
10:30AM 43.3133 -85.9050 269° West 454 522 40,000  Level Chicago Center
10:31AM 43.3117 -86.0756 269° West 455 524 40,000  Level Chicago Center
10:32AM 43.3103 -86.2464 269° West 454 522 40,000  Level Chicago Center
10:33AM 43.3075 -86.4144 269° West 449 517 40,000  Level Chicago Center
10:34AM 43.3058 -86.5850 269° West 451 519 40,000  Level Chicago Center
10:35AM 43.3022 -86.7903 269° West 451 519 40,000  Level Chicago Center
10:36AM 43.2983 -86.9608 268° West 449 517 40,000  Level Chicago Center
10:37AM 43.2950 -87.1317 269° West 450 518 40,000  Level Chicago Center
10:38AM 43.2917 -87.3028 269° West 451 519 40,000  Level Chicago Center
10:39AM 43.2875 -87.4889 268° West 448 516 40,000  Level Chicago Center
10:40AM 43.2828 -87.6597 268° West 447 514 40,000  Level Chicago Center
10:41AM 43.2783 -87.8294 268° West 447 514 40,000  Level Chicago Center
10:42AM 43.2742 -88.0011 268° West 449 517 40,000  Level Chicago Center
10:43AM 43.2681 -88.2081 268° West 451 519 40,000  Level Chicago Center
10:44AM 43.2633 -88.3814 268° West 450 518 40,000  Level Chicago Center
10:45AM 43.2567 -88.5542 267° West 446 513 40,000  Level Chicago Center
10:46AM 43.2506 -88.7272 267° West 448 516 40,000  Level Chicago Center
10:47AM 43.2456 -88.8994 268° West 452 520 40,000 420 Level Chicago Center
10:48AM 43.2392 -89.0672 267° West 442 509 40,900 960 Climbing Chicago Center
10:50AM 43.2281 -89.3786 267° West 408 470 42,900 660 Climbing Minneapolis Center
10:51AM 43.2214 -89.5558 267° West 393 452 43,000  Climbing Chicago Center
10:52AM 43.2111 -89.7086 265° West 403 464 43,000  Level Chicago Center
10:54AM 43.2039 -89.8681 266° West 417 480 43,000  Level Chicago Center
10:56AM 43.1894 -90.1944 267° West 433 498 43,000  Level Chicago Center
10:57AM 43.1803 -90.3678 266° West 439 505 43,000  Level Chicago Center
10:58AM 43.1736 -90.5342 267° West 441 507 43,000  Level Chicago Center
10:59AM 43.1647 -90.6986 266° West 438 504 43,000  Level Chicago Center
11:00AM 43.1544 -90.8964 266° West 437 503 43,000  Level Chicago Center
11:01AM 43.1458 -91.0619 266° West 440 506 43,000  Level Chicago Center
11:02AM 43.1375 -91.2250 266° West 437 503 43,000  Level Chicago Center
11:03AM 43.1272 -91.3883 265° West 438 504 43,000  Level Chicago Center
11:04AM 43.1181 -91.5528 266° West 440 506 43,000  Level Chicago Center
11:05AM 43.1067 -91.7506 266° West 444 511 43,000  Level Chicago Center
11:07AM 43.0878 -92.0492 265° West 446 513 43,000  Level Minneapolis Center
11:08AM 43.0781 -92.2131 265° West 441 507 43,000  Level Minneapolis Center
11:09AM 43.0653 -92.4142 265° West 447 514 43,000  Level Minneapolis Center
11:10AM 43.0528 -92.5825 264° West 451 519 43,000  Level Minneapolis Center
11:11AM 43.0419 -92.7483 265° West 446 513 43,000  Level Minneapolis Center
11:12AM 43.0300 -92.9156 264° West 445 512 43,000  Level Minneapolis Center
11:13AM 43.0186 -93.0819 265° West 445 512 43,000 120 Level Minneapolis Center
11:14AM 43.0064 -93.2447 264° West 439 505 43,300 480 Climbing Minneapolis Center
11:15AM 42.9931 -93.4339 265° West 427 491 44,000 480 Climbing Minneapolis Center
11:16AM 42.9806 -93.5922 264° West 422 486 44,400 420 Climbing Minneapolis Center
11:17AM 42.9692 -93.7489 264° West 420 483 44,900 240 Climbing Minneapolis Center
11:18AM 42.9561 -93.9050 264° West 419 482 45,000  Climbing Minneapolis Center
11:19AM 42.9431 -94.0639 264° West 423 487 45,000  Level Minneapolis Center
11:20AM 42.9303 -94.2250 264° West 429 494 45,000  Level Minneapolis Center
11:21AM 42.9139 -94.4194 264° West 433 498 45,000  Level Minneapolis Center
11:22AM 42.9006 -94.5836 264° West 437 503 45,000  Level Minneapolis Center
11:23AM 42.8867 -94.7339 263° West 434 499 45,000  Level Minneapolis Center
11:24AM 42.8694 -94.9325 263° West 439 505 45,000  Level Minneapolis Center
11:25AM 42.8544 -95.0972 263° West 440 506 45,000  Level Minneapolis Center
11:26AM 42.8400 -95.2606 263° West 436 502 45,000  Level Minneapolis Center
11:27AM 42.8242 -95.4192 262° West 429 494 45,000  Level Minneapolis Center
11:28AM 42.8111 -95.5756 264° West 420 483 45,000  Level Minneapolis Center
11:29AM 42.7956 -95.7331 262° West 419 482 45,000  Level Minneapolis Center
11:30AM 42.7800 -95.8911 262° West 420 483 45,000  Level Minneapolis Center
11:31AM 42.7642 -96.0522 262° West 425 489 45,000  Level Minneapolis Center
11:32AM 42.7436 -96.2492 262° West 434 499 45,000  Level Minneapolis Center
11:33AM 42.7272 -96.4147 262° West 439 505 45,000  Level Minneapolis Center
11:34AM 42.7097 -96.5794 262° West 441 507 45,000  Level Minneapolis Center
11:35AM 42.7089 -96.5888 262° West  Level FlightAware Approximate
11:36AM 42.6933 -96.7381 262° West 435 501 45,000  Level Minneapolis Center
11:37AM 42.6761 -96.8997 262° West 433 498 45,000  Level Minneapolis Center
11:38AM 42.6553 -97.0939 262° West 434 499 45,000  Level Minneapolis Center
11:39AM 42.6378 -97.2550 262° West 433 498 45,000  Level Minneapolis Center
11:40AM 42.6192 -97.4161 261° West 433 498 45,000  Level Minneapolis Center
11:41AM 42.6019 -97.5778 262° West 434 499 45,000  Level Minneapolis Center
11:42AM 42.5831 -97.7389 261° West 434 499 45,000  Level Minneapolis Center
11:43AM 42.5622 -97.9214 261° West 429 494 45,000  Level Minneapolis Center
11:44AM 42.5433 -98.0808 261° West 429 494 45,000  Level Minneapolis Center
11:45AM 42.5242 -98.2383 261° West 426 490 45,000  Level Minneapolis Center
11:46AM 42.5056 -98.3967 261° West 427 491 45,000  Level Minneapolis Center
11:47AM 42.4864 -98.5539 261° West 426 490 45,000  Level Minneapolis Center
11:48AM 42.4683 -98.7122 261° West 426 490 45,000  Level Minneapolis Center
11:49AM 42.4525 -98.8697 262° West 424 488 45,000  Level Minneapolis Center
11:50AM 42.4367 -99.0272 262° West 424 488 45,000  Level Minneapolis Center
11:51AM 42.4169 -99.2178 262° West 426 490 45,000  Level Minneapolis Center
11:52AM 42.4006 -99.3744 262° West 424 488 45,000  Level Minneapolis Center
11:53AM 42.3833 -99.5331 262° West 425 489 45,000  Level Minneapolis Center
11:54AM 42.3675 -99.6906 262° West 425 489 45,000  Level Minneapolis Center
11:55AM 42.3503 -99.8489 262° West 426 490 45,000  Level Minneapolis Center
11:56AM 42.3319 -100.0072 261° West 427 491 45,000  Level Minneapolis Center
11:57AM 42.3108 -100.1989 262° West 430 495 45,000  Level Minneapolis Center
11:58AM 42.2931 -100.3556 261° West 425 489 45,000  Level Minneapolis Center
11:59AM 42.2747 -100.5156 261° West 428 493 45,000  Level Minneapolis Center
12:00PM 42.2561 -100.6747 261° West 429 494 45,000  Level Minneapolis Center
12:02PM 42.2317 -100.8811 261° West 437 503 45,000  Level Denver Center
12:03PM 42.2111 -101.0636 261° West 440 506 45,000  Level Denver Center
12:04PM 42.1914 -101.2208 260° West 443 510 45,000  Level Denver Center
12:05PM 42.1686 -101.4042 261° West 445 512 45,000  Level Denver Center
12:06PM 42.1492 -101.5606 261° West 445 512 45,000  Level Denver Center
12:07PM 42.1269 -101.7431 261° West 443 510 45,000  Level Denver Center
12:08PM 42.1056 -101.9025 260° West 452 520 45,000  Level Denver Center
12:09PM 42.0831 -102.0853 261° West 447 514 45,000  Level Denver Center
12:10PM 42.0608 -102.2464 260° West 448 516 45,000  Level Denver Center
12:11PM 42.0369 -102.4300 260° West 447 514 45,000  Level Denver Center
12:12PM 42.0172 -102.5869 260° West 446 513 45,000  Level Denver Center
12:13PM 41.9928 -102.7669 260° West 439 505 45,000  Level Denver Center
12:14PM 41.9700 -102.9231 259° West 445 512 45,000  Level Denver Center
12:15PM 41.9503 -103.0789 260° West 444 511 45,000  Level Denver Center
12:16PM 41.9239 -103.2611 259° West 445 512 45,000  Level Denver Center
12:17PM 41.9022 -103.4178 260° West 445 512 45,000  Level Denver Center
12:18PM 41.8647 -103.5983 254° West 451 519 45,000  Level Denver Center
12:19PM 41.8286 -103.7533 253° West 454 522 45,000  Level Denver Center
12:20PM 41.7844 -103.9347 252° West 457 526 45,000  Level Denver Center
12:21PM 41.7478 -104.0903 253° West 458 527 45,000  Level Denver Center
12:22PM 41.7028 -104.2731 252° West 461 531 45,000  Level Denver Center
12:23PM 41.6633 -104.4297 251° West 463 533 45,000  Level Denver Center
12:24PM 41.6183 -104.6144 252° West 466 536 45,000  Level Denver Center
12:25PM 41.5786 -104.7742 252° West 471 542 45,000  Level Denver Center
12:26PM 41.5392 -104.9344 252° West 473 544 45,000  Level Denver Center
12:27PM 41.4922 -105.1206 251° West 474 545 45,000  Level Denver Center
12:28PM 41.4511 -105.2811 251° West 476 548 45,000  Level Denver Center
12:30PM 41.4028 -105.4714 251° West 484 557 45,000  Level Denver Center
12:31PM 41.3608 -105.6331 251° West 484 557 45,000  Level Denver Center
12:32PM 41.3117 -105.8225 251° West 487 560 45,000  Level Denver Center
12:33PM 41.2722 -105.9875 252° West 488 562 45,000  Level Denver Center
12:34PM 41.2264 -106.1672 251° West 488 562 45,000  Level Denver Center
12:35PM 41.1781 -106.3558 251° West 485 558 45,000  Level Denver Center
12:36PM 41.1375 -106.5192 252° West 487 560 45,000  Level Denver Center
12:37PM 41.0958 -106.6814 251° West 486 559 45,000  Level Denver Center
12:38PM 41.0475 -106.8697 251° West 483 556 45,000  Level Denver Center
12:39PM 41.0056 -107.0317 251° West 485 558 45,000  Level Denver Center
12:40PM 40.9567 -107.2208 251° West 487 560 45,000  Level Denver Center
12:41PM 40.9133 -107.3833 251° West 490 564 45,000  Level Denver Center
12:42PM 40.8633 -107.5739 251° West 493 567 45,000  Level Denver Center
12:43PM 40.8197 -107.7375 251° West 494 568 45,000  Level Denver Center
12:44PM 40.7681 -107.9281 250° West 493 567 45,000  Level Denver Center
12:45PM 40.7206 -108.1058 251° West 494 568 45,000  Level Denver Center
12:46PM 40.6761 -108.2694 250° West 497 572 45,000  Level Denver Center
12:47PM 40.6242 -108.4614 250° West 499 574 45,000  Level Denver Center
12:48PM 40.5786 -108.6231 250° West 496 571 45,000  Level Denver Center
12:49PM 40.5258 -108.8133 250° West 496 571 45,000  Level Denver Center
12:50PM 40.4808 -108.9758 250° West 497 572 45,000  Level Denver Center
12:51PM 40.4272 -109.1661 250° West 499 574 45,000  Level Denver Center
12:52PM 40.3814 -109.3281 250° West 498 573 45,000  Level Denver Center
12:53PM 40.3281 -109.5144 249° West 493 567 45,000  Level Denver Center
12:54PM 40.2814 -109.6739 249° West 493 567 45,000  Level Denver Center
12:55PM 40.2283 -109.8583 249° West 488 562 45,000  Level Denver Center
12:56PM 40.1825 -110.0167 249° West 489 563 45,000  Level Denver Center
12:57PM 40.1239 -110.2022 248° West 495 570 45,000  Level Denver Center
12:58PM 40.0700 -110.3594 246° West 497 572 45,000  Level Denver Center
12:59PM 40.0067 -110.5447 246° West 501 577 45,000  Level Denver Center
01:01PM 39.9500 -110.7047 245° Southwest 506 582 45,000  Level Denver Center
01:02PM 39.8769 -110.9203 246° West 511 588 45,000  Level Salt Lake Center
01:03PM 39.8094 -111.1075 245° Southwest 512 589 45,000  Level Salt Lake Center
01:04PM 39.7533 -111.2681 246° West 511 588 45,000  Level Salt Lake Center
01:05PM 39.6914 -111.4369 245° Southwest 515 593 45,000  Level Salt Lake Center
01:06PM 39.6319 -111.6039 245° Southwest 511 588 45,000  Level Salt Lake Center
01:07PM 39.5597 -111.8036 245° Southwest 509 586 45,000  Level Salt Lake Center
01:08PM 39.5006 -111.9686 245° Southwest 505 581 45,000  Level Salt Lake Center
01:09PM 39.4419 -112.1353 246° West 509 586 45,000  Level Salt Lake Center
01:10PM 39.3828 -112.3017 245° Southwest 510 587 45,000  Level Salt Lake Center
01:11PM 39.3272 -112.4708 247° West 513 590 45,000  Level Salt Lake Center
01:12PM 39.2708 -112.6367 246° West 509 586 45,000  Level Salt Lake Center
01:13PM 39.2222 -112.8028 249° West 505 581 45,000  Level Salt Lake Center
01:14PM 39.1692 -113.0125 252° West 511 588 45,000  Level Salt Lake Center
01:15PM 39.1236 -113.1817 251° West 507 583 45,000  Level Salt Lake Center
01:16PM 39.0775 -113.3536 251° West 508 585 45,000  Level Salt Lake Center
01:17PM 39.0317 -113.5261 251° West 512 589 45,000  Level Salt Lake Center
01:18PM 38.9844 -113.6975 251° West 512 589 45,000  Level Salt Lake Center
01:19PM 38.9372 -113.8672 250° West 509 586 45,000  Level Salt Lake Center
01:20PM 38.8817 -114.0722 251° West 509 586 45,000  Level Salt Lake Center
01:21PM 38.8339 -114.2442 250° West 513 590 45,000  Level Salt Lake Center
01:22PM 38.7858 -114.4153 250° West 512 589 45,000 -480 Level Salt Lake Center
01:23PM 38.7378 -114.5878 250° West 516 594 44,100 -960 Descending Salt Lake Center
01:25PM 38.6867 -114.7650 250° West 529 609 43,100 -540 Descending Salt Lake Center
01:26PM 38.6344 -114.9442 250° West 537 618 43,000 -60 Descending Salt Lake Center
01:27PM 38.5744 -115.1561 250° West 532 612 43,000  Level Salt Lake Center
01:28PM 38.5222 -115.3333 249° West 534 615 43,000  Level Salt Lake Center
01:29PM 38.4742 -115.5019 250° West 539 620 43,000  Level Salt Lake Center
01:30PM 38.4211 -115.6797 249° West 538 619 43,000  Level Salt Lake Center
01:31PM 38.3681 -115.8572 249° West 537 618 43,000  Level Salt Lake Center
01:32PM 38.3061 -116.0700 250° West 534 615 43,000  Level Salt Lake Center
01:33PM 38.2525 -116.2456 249° West 532 612 43,000  Level Salt Lake Center
01:34PM 38.1997 -116.4206 249° West 530 610 43,000  Level Salt Lake Center
01:35PM 38.1681 -116.5253 249° West 528 608 43,000  Level Oakland Center
01:36PM 38.1044 -116.7333 249° West 526 605 43,000  Level Oakland Center
01:37PM 38.0508 -116.9086 249° West 527 606 43,000  Level Oakland Center
01:38PM 37.9967 -117.0836 249° West 525 604 43,000  Level Oakland Center
01:39PM 37.9386 -117.2600 247° West 527 606 43,000  Level Oakland Center
01:40PM 37.8778 -117.4325 246° West 529 609 43,000  Level Oakland Center
01:41PM 37.8172 -117.6033 246° West 530 610 43,000 -240 Level Oakland Center
01:42PM 37.7572 -117.7717 246° West 525 604 42,600 -960 Descending Oakland Center
01:43PM 37.6961 -117.9406 245° Southwest 527 606 41,100 -1,560 Descending Oakland Center
01:44PM 37.6364 -118.1072 246° West 522 601 39,500 -1,560 Descending Oakland Center
01:45PM 37.5758 -118.2739 245° Southwest 522 601 38,000 -1,500 Descending Oakland Center
01:46PM 37.5144 -118.4442 246° West 531 611 36,500 -1,500 Descending Oakland Center
01:47PM 37.4528 -118.6125 245° Southwest 531 611 35,000 -1,500 Descending Oakland Center
01:48PM 37.3989 -118.7686 247° West 482 555 33,500 -1,620 Descending Oakland Center
01:49PM 37.3739 -118.9419 260° West 454 522 31,700 -1,500 Descending Oakland Center
01:50PM 37.3597 -119.0914 263° West 436 502 30,500 -1,140 Descending Oakland Center
01:51PM 37.3431 -119.2414 262° West 435 501 29,400 -1,080 Descending Oakland Center
01:52PM 37.3286 -119.3919 263° West 436 502 28,300 -1,080 Descending Oakland Center
01:53PM 37.3125 -119.5422 262° West 436 502 27,200 -1,260 Descending Oakland Center
01:54PM 37.2936 -119.7200 262° West 431 496 25,800 -1,260 Descending Oakland Center
01:55PM 37.2772 -119.8736 262° West 427 491 24,700 -1,080 Descending Oakland Center
01:56PM 37.2611 -120.0183 262° West 420 483 23,600 -1,080 Descending Oakland Center
01:57PM 37.2464 -120.1539 262° West 398 458 22,500 -1,080 Descending Oakland Center
01:58PM 37.2331 -120.2867 263° West 386 444 21,400 -1,200 Descending Oakland Center
01:59PM 37.2167 -120.3833 258° West 380 437 20,500 -2,160 Descending Northern Cal TRACON
02:00PM 37.2000 -120.5167 261° West 432 497 17,700 -2,580 Descending Northern Cal TRACON
02:01PM 37.1667 -120.6333 250° West 355 409 15,400 -1,860 Descending Northern Cal TRACON
02:02PM 37.1500 -120.7500 260° West 357 411 14,000 -1,560 Descending Northern Cal TRACON
02:03PM 37.1167 -120.8667 250° West 346 398 12,500 -1,560 Descending Northern Cal TRACON
02:03PM 37.1069 -120.9256 258° West 350 403 11,800 -1,020 Descending Oakland Center
02:04PM 37.0822 -121.0375 255° West 339 390 11,000 -420 Descending Oakland Center
02:05PM 37.0564 -121.1533 254° West 336 387 11,000 -60 Level Oakland Center
02:06PM 37.0308 -121.2678 254° West 340 391 10,900 -660 Descending Oakland Center
02:07PM 37.0139 -121.3669 258° West 305 351 9,700 -1,380 Descending Oakland Center
02:08PM 37.0436 -121.4558 293° West 287 330 8,100 -1,500 Descending Oakland Center
02:09PM 37.0808 -121.5394 299° West 281 323 6,600 -1,500 Descending Oakland Center
02:10PM 37.1189 -121.6158 302° West 263 303 5,100 -840 Descending Oakland Center
02:11PM 37.1517 -121.6936 298° West 256 295 5,000 -660 Descending Oakland Center
02:13PM 37.2047 -121.7697 311° West 249 287 3,800 -1,200 Descending Oakland Center
02:14PM 37.2553 -121.8156 324° Northwest 234 269 2,600 -1,080 Descending Oakland Center
02:15PM 37.2981 -121.8594 321° Northwest 210 242 1,600 -840 Descending Oakland Center
02:16PM 37.3267 -121.8936 316° Northwest 165 190 900 -780 Descending Oakland Center
02:17PM 37.3544 -121.9236 319° Northwest 144 166 100 -840 Descending Oakland Center
02:19PM 37.3500 -121.9167 North  Level FlightAware Approximate